createdAt,value
2023-01-11T00:00:55.707Z,4.14
2023-01-11T00:03:22.846Z,4.28
2023-01-11T00:05:49.692Z,4.31
2023-01-11T00:08:16.584Z,4.28
2023-01-11T00:10:43.702Z,4.27
2023-01-11T00:13:10.562Z,4.21
2023-01-11T00:15:38.550Z,4.26
2023-01-11T00:18:05.892Z,4.21
2023-01-11T00:20:33.039Z,4.08
2023-01-11T00:23:00.051Z,4.21
2023-01-11T00:25:27.338Z,4.08
2023-01-11T00:27:54.746Z,4.11
2023-01-11T00:30:21.866Z,4.03
2023-01-11T00:32:48.782Z,4.03
2023-01-11T00:35:16.495Z,4.13
2023-01-11T00:37:43.301Z,4.04
2023-01-11T00:40:10.691Z,4.07
2023-01-11T00:42:55.973Z,3.98
2023-01-11T00:45:41.393Z,4.08
2023-01-11T00:48:10.739Z,4.03
2023-01-11T00:50:39.152Z,4.03
2023-01-11T00:53:07.668Z,3.90
2023-01-11T00:55:34.953Z,3.97
2023-01-11T00:58:02.348Z,3.98
2023-01-11T01:00:49.006Z,3.97
2023-01-11T01:03:15.944Z,3.94
2023-01-11T01:05:42.913Z,3.85
2023-01-11T01:08:09.935Z,3.92
2023-01-11T01:10:36.888Z,3.92
2023-01-11T01:13:24.209Z,3.88
2023-01-11T01:15:57.845Z,3.89
2023-01-11T01:18:24.823Z,3.88
2023-01-11T01:20:51.809Z,3.62
2023-01-11T01:23:19.043Z,3.88
2023-01-11T01:25:46.071Z,3.85
2023-01-11T01:28:13.136Z,3.83
2023-01-11T01:30:41.297Z,3.75
2023-01-11T01:33:08.206Z,3.89
2023-01-11T01:35:38.019Z,3.85
2023-01-11T01:38:05.037Z,3.84
2023-01-11T01:40:32.107Z,3.79
2023-01-11T01:43:00.088Z,3.87
2023-01-11T01:45:28.870Z,3.86
2023-01-11T01:48:01.732Z,3.58
2023-01-11T01:50:34.082Z,3.79
2023-01-11T01:53:12.675Z,3.85
2023-01-11T01:55:43.334Z,3.76
2023-01-11T01:58:14.291Z,3.50
2023-01-11T02:00:44.012Z,3.62
2023-01-11T02:03:16.276Z,3.74
2023-01-11T02:05:43.892Z,3.49
2023-01-11T02:08:25.000Z,3.79
2023-01-11T02:10:53.356Z,3.74
2023-01-11T02:13:20.971Z,3.71
2023-01-11T02:16:07.448Z,3.76
2023-01-11T02:18:37.649Z,3.84
2023-01-11T02:21:24.733Z,3.83
2023-01-11T02:24:17.957Z,3.78
2023-01-11T02:27:09.511Z,3.87
2023-01-11T02:29:36.408Z,3.85
2023-01-11T02:32:14.461Z,3.81
2023-01-11T02:34:59.358Z,3.88
2023-01-11T02:37:43.234Z,3.86
2023-01-11T02:40:41.985Z,3.90
2023-01-11T02:43:36.990Z,3.89
2023-01-11T02:46:16.861Z,3.79
2023-01-11T02:49:05.012Z,3.95
2023-01-11T02:51:42.726Z,3.86
2023-01-11T02:54:12.782Z,3.96
2023-01-11T02:56:43.414Z,3.98
2023-01-11T02:59:23.928Z,3.98
2023-01-11T03:01:55.632Z,3.98
2023-01-11T03:04:25.801Z,4.02
2023-01-11T03:07:33.137Z,4.03
2023-01-11T03:10:01.187Z,4.06
2023-01-11T03:12:57.272Z,4.04
2023-01-11T03:15:30.644Z,4.03
2023-01-11T03:18:31.812Z,4.07
2023-01-11T03:21:08.071Z,4.06
2023-01-11T03:23:44.268Z,4.01
2023-01-11T03:26:48.184Z,4.07
2023-01-11T03:29:27.379Z,4.06
2023-01-11T03:32:01.108Z,3.82
2023-01-11T03:34:40.447Z,3.63
2023-01-11T03:37:12.204Z,3.24
2023-01-11T03:39:52.220Z,3.34
2023-01-11T03:42:23.825Z,3.12
2023-01-11T03:44:55.688Z,3.17
2023-01-11T03:47:25.948Z,3.34
2023-01-11T03:50:01.426Z,3.16
2023-01-11T03:52:35.089Z,3.21
2023-01-11T03:55:05.900Z,3.44
2023-01-11T03:57:38.251Z,3.53
2023-01-11T04:00:07.879Z,3.64
2023-01-11T04:02:39.534Z,3.63
2023-01-11T04:05:07.949Z,3.64
2023-01-11T04:07:35.543Z,3.21
2023-01-11T04:10:03.178Z,3.41
2023-01-11T04:12:31.128Z,3.17
2023-01-11T04:14:58.125Z,3.03
2023-01-11T04:17:25.185Z,3.27
2023-01-11T04:19:52.062Z,3.37
2023-01-11T04:22:19.073Z,3.28
2023-01-11T04:24:45.908Z,3.37
2023-01-11T04:27:12.912Z,3.25
2023-01-11T04:29:39.806Z,3.05
2023-01-11T04:32:06.996Z,3.16
2023-01-11T04:34:33.945Z,3.51
2023-01-11T04:37:01.015Z,3.68
2023-01-11T04:39:28.243Z,3.62
2023-01-11T04:42:14.141Z,3.36
2023-01-11T04:44:41.466Z,3.09
2023-01-11T04:47:08.692Z,3.17
2023-01-11T04:49:35.705Z,2.76
2023-01-11T04:52:02.813Z,2.49
2023-01-11T04:54:29.819Z,2.74
2023-01-11T04:56:57.812Z,2.69
2023-01-11T04:59:24.901Z,3.03
2023-01-11T05:01:51.886Z,2.88
2023-01-11T05:04:20.378Z,3.08
2023-01-11T05:06:47.382Z,3.32
2023-01-11T05:09:18.613Z,3.50
2023-01-11T05:11:45.959Z,2.94
2023-01-11T05:14:13.621Z,3.30
2023-01-11T05:16:40.704Z,3.08
2023-01-11T05:19:09.332Z,3.01
2023-01-11T05:21:42.321Z,3.11
2023-01-11T05:24:14.118Z,3.07
2023-01-11T05:26:44.621Z,3.06
2023-01-11T05:29:13.344Z,3.14
2023-01-11T05:31:40.948Z,2.98
2023-01-11T05:34:09.865Z,2.99
2023-01-11T05:36:37.056Z,3.04
2023-01-11T05:39:05.077Z,3.25
2023-01-11T05:41:32.462Z,3.03
2023-01-11T05:44:17.883Z,2.96
2023-01-11T05:46:45.389Z,2.84
2023-01-11T05:49:13.508Z,2.80
2023-01-11T05:51:42.489Z,2.81
2023-01-11T05:54:12.763Z,2.92
2023-01-11T05:56:40.006Z,2.94
2023-01-11T05:59:07.256Z,2.94
2023-01-11T06:01:34.786Z,2.84
2023-01-11T06:04:01.896Z,2.88
2023-01-11T06:06:29.256Z,3.20
2023-01-11T06:08:56.484Z,3.08
2023-01-11T06:11:23.424Z,3.37
2023-01-11T06:13:50.505Z,3.05
2023-01-11T06:16:20.375Z,1.94
2023-01-11T06:18:49.654Z,3.05
2023-01-11T06:21:18.167Z,3.26
2023-01-11T06:23:47.373Z,3.46
2023-01-11T06:26:15.432Z,3.54
2023-01-11T06:28:43.115Z,3.37
2023-01-11T06:31:11.102Z,3.57
2023-01-11T06:33:39.065Z,3.32
2023-01-11T06:36:11.337Z,3.38
2023-01-11T06:38:38.723Z,3.52
2023-01-11T06:41:10.615Z,3.75
2023-01-11T06:43:41.067Z,3.82
2023-01-11T06:46:14.092Z,3.69
2023-01-11T06:48:41.144Z,3.42
2023-01-11T06:51:10.973Z,3.34
2023-01-11T06:53:38.246Z,3.24
2023-01-11T06:56:05.724Z,3.45
2023-01-11T06:58:33.160Z,3.60
2023-01-11T07:01:00.200Z,3.67
2023-01-11T07:03:27.704Z,3.73
2023-01-11T07:05:58.970Z,3.72
2023-01-11T07:08:26.705Z,3.89
2023-01-11T07:10:54.211Z,4.07
2023-01-11T07:13:21.826Z,4.09
2023-01-11T07:15:50.810Z,4.17
2023-01-11T07:18:19.190Z,4.03
2023-01-11T07:20:47.088Z,4.15
2023-01-11T07:23:14.633Z,4.19
2023-01-11T07:25:41.599Z,4.26
2023-01-11T07:28:09.412Z,3.97
2023-01-11T07:30:56.147Z,3.88
2023-01-11T07:33:25.042Z,3.89
2023-01-11T07:35:52.429Z,4.10
2023-01-11T07:38:19.669Z,4.42
2023-01-11T07:40:46.651Z,3.99
2023-01-11T07:43:15.471Z,4.51
2023-01-11T07:45:46.371Z,4.59
2023-01-11T07:48:14.691Z,4.65
2023-01-11T07:50:44.891Z,4.74
2023-01-11T07:53:13.961Z,4.45
2023-01-11T07:55:41.470Z,4.50
2023-01-11T07:58:11.472Z,4.42
2023-01-11T08:00:40.916Z,4.72
2023-01-11T08:03:08.071Z,4.78
2023-01-11T08:05:36.525Z,4.42
2023-01-11T08:08:04.158Z,4.52
2023-01-11T08:10:31.105Z,4.38
2023-01-11T08:13:16.819Z,4.31
2023-01-11T08:15:44.385Z,4.49
2023-01-11T08:18:12.704Z,3.76
2023-01-11T08:20:40.357Z,3.75
2023-01-11T08:23:09.875Z,3.92
2023-01-11T08:25:37.353Z,4.06
2023-01-11T08:28:07.435Z,4.32
2023-01-11T08:30:36.435Z,4.39
2023-01-11T08:33:06.202Z,4.40
2023-01-11T08:35:39.232Z,4.42
2023-01-11T08:38:07.120Z,4.38
2023-01-11T08:40:34.220Z,4.04
2023-01-11T08:43:01.590Z,4.39
2023-01-11T08:45:29.146Z,4.45
2023-01-11T08:47:56.550Z,4.59
2023-01-11T08:50:23.639Z,4.71
2023-01-11T08:52:51.837Z,4.56
2023-01-11T08:55:22.003Z,4.77
2023-01-11T08:57:49.069Z,4.90
2023-01-11T09:00:16.486Z,4.52
2023-01-11T09:02:45.419Z,4.29
2023-01-11T09:05:12.637Z,4.21
2023-01-11T09:07:39.507Z,4.29
2023-01-11T09:10:07.094Z,3.68
2023-01-11T09:12:34.038Z,4.47
2023-01-11T09:15:01.205Z,4.52
2023-01-11T09:17:28.500Z,4.33
2023-01-11T09:19:55.477Z,4.08
2023-01-11T09:22:23.123Z,3.84
2023-01-11T09:24:50.124Z,3.69
2023-01-11T09:27:17.571Z,3.95
2023-01-11T09:29:46.139Z,3.78
2023-01-11T09:32:13.403Z,4.15
2023-01-11T09:34:42.954Z,4.08
2023-01-11T09:37:10.407Z,4.21
2023-01-11T09:39:37.491Z,4.49
2023-01-11T09:42:22.133Z,4.78
2023-01-11T09:44:51.610Z,4.73
2023-01-11T09:47:21.695Z,5.03
2023-01-11T09:49:56.526Z,4.85
2023-01-11T09:52:32.964Z,4.52
2023-01-11T09:55:01.587Z,4.67
2023-01-11T09:57:38.977Z,4.80
2023-01-11T10:00:12.849Z,5.08
2023-01-11T10:03:11.385Z,5.17
2023-01-11T10:06:00.246Z,5.11
2023-01-11T10:18:29.794Z,4.74
2023-01-11T10:19:49.566Z,5.07
2023-01-11T10:22:24.048Z,5.27
2023-01-11T10:25:15.636Z,5.55
2023-01-11T10:27:59.027Z,5.63
2023-01-11T10:31:01.493Z,5.69
2023-01-11T10:34:19.183Z,5.46
2023-01-11T10:37:47.035Z,5.50
2023-01-11T10:40:40.206Z,5.79
2023-01-11T10:43:22.451Z,5.38
2023-01-11T10:45:53.818Z,5.74
2023-01-11T10:48:28.148Z,5.91
2023-01-11T10:51:01.874Z,5.91
2023-01-11T10:53:38.689Z,5.58
2023-01-11T10:56:24.703Z,5.90
2023-01-11T10:59:16.164Z,6.01
2023-01-11T11:01:52.984Z,6.07
2023-01-11T11:04:38.540Z,6.10
2023-01-11T11:07:27.103Z,6.19
2023-01-11T11:10:26.496Z,5.90
2023-01-11T11:12:59.125Z,5.84
2023-01-11T11:15:45.412Z,5.90
2023-01-11T11:18:13.181Z,5.82
2023-01-11T11:20:40.963Z,5.61
2023-01-11T11:23:16.436Z,5.45
2023-01-11T11:25:49.753Z,5.00
2023-01-11T11:28:22.919Z,5.36
2023-01-11T11:30:53.724Z,5.28
2023-01-11T11:33:24.849Z,5.50
2023-01-11T11:36:02.268Z,5.69
2023-01-11T11:38:32.287Z,5.85
2023-01-11T11:41:09.895Z,6.01
2023-01-11T11:43:40.168Z,5.70
2023-01-11T11:46:25.096Z,5.38
2023-01-11T11:49:12.387Z,5.59
2023-01-11T11:51:41.298Z,5.68
2023-01-11T11:54:18.741Z,5.59
2023-01-11T11:56:45.999Z,5.61
2023-01-11T11:59:20.276Z,5.82
2023-01-11T12:01:55.124Z,5.77
2023-01-11T12:04:30.426Z,5.83
2023-01-11T12:07:12.793Z,5.81
2023-01-11T12:09:47.207Z,5.88
2023-01-11T12:12:19.567Z,5.84
2023-01-11T12:15:14.982Z,5.92
2023-01-11T12:17:43.553Z,6.02
2023-01-11T12:20:22.874Z,6.03
2023-01-11T12:22:50.612Z,6.00
2023-01-11T12:25:17.650Z,6.03
2023-01-11T12:28:15.023Z,5.94
2023-01-11T12:30:55.119Z,5.93
2023-01-11T12:33:59.083Z,5.99
2023-01-11T12:37:25.397Z,5.67
2023-01-11T12:39:52.444Z,5.89
2023-01-11T12:42:41.610Z,5.95
2023-01-11T12:45:27.958Z,5.62
2023-01-11T12:48:18.539Z,5.73
2023-01-11T12:51:29.617Z,5.78
2023-01-11T12:54:38.398Z,4.66
2023-01-11T12:57:21.791Z,5.84
2023-01-11T13:00:35.126Z,5.93
2023-01-11T13:03:34.457Z,5.75
2023-01-11T13:06:30.591Z,5.82
2023-01-11T13:09:23.605Z,5.96
2023-01-11T13:12:13.622Z,5.95
2023-01-11T13:15:02.238Z,6.03
2023-01-11T13:17:47.663Z,5.97
2023-01-11T13:20:25.759Z,5.93
2023-01-11T13:23:09.474Z,5.87
2023-01-11T13:25:45.104Z,5.74
2023-01-11T13:28:35.489Z,5.90
2023-01-11T13:31:05.529Z,5.93
2023-01-11T13:33:34.195Z,5.98
2023-01-11T13:36:22.690Z,5.74
2023-01-11T13:39:17.004Z,5.87
2023-01-11T13:41:52.225Z,5.98
2023-01-11T13:44:28.251Z,6.12
2023-01-11T13:47:01.906Z,5.77
2023-01-11T13:49:51.600Z,5.47
2023-01-11T13:52:32.134Z,5.45
2023-01-11T13:55:30.116Z,5.29
2023-01-11T13:58:01.344Z,5.53
2023-01-11T14:00:52.672Z,5.50
2023-01-11T14:03:30.875Z,5.41
2023-01-11T14:06:24.176Z,5.24
2023-01-11T14:09:07.459Z,4.06
2023-01-11T14:12:14.557Z,5.53
2023-01-11T14:14:50.547Z,5.51
2023-01-11T14:17:28.095Z,5.61
2023-01-11T14:20:16.063Z,5.23
2023-01-11T14:22:52.454Z,5.61
2023-01-11T14:25:34.979Z,5.51
2023-01-11T14:28:44.359Z,5.24
2023-01-11T14:31:30.247Z,5.45
2023-01-11T14:34:14.060Z,5.24
2023-01-11T14:36:47.221Z,5.38
2023-01-11T14:39:28.810Z,5.14
2023-01-11T14:42:33.613Z,5.00
2023-01-11T14:45:28.804Z,4.93
2023-01-11T14:48:14.110Z,5.04
2023-01-11T14:51:15.117Z,5.32
2023-01-11T14:53:55.246Z,5.45
2023-01-11T14:56:42.811Z,5.20
2023-01-11T14:59:42.472Z,4.98
2023-01-11T15:02:17.379Z,5.29
2023-01-11T15:04:54.885Z,5.47
2023-01-11T15:07:24.624Z,5.46
2023-01-11T15:09:54.177Z,5.54
2023-01-11T15:12:25.385Z,5.31
2023-01-11T15:15:03.748Z,5.48
2023-01-11T15:17:50.596Z,4.85
2023-01-11T15:20:20.163Z,5.40
2023-01-11T15:22:54.935Z,5.41
2023-01-11T15:25:28.198Z,5.11
2023-01-11T15:27:56.452Z,4.97
2023-01-11T15:30:30.032Z,4.69
2023-01-11T15:33:18.947Z,4.94
2023-01-11T15:36:07.223Z,4.98
2023-01-11T15:38:42.605Z,5.02
2023-01-11T15:41:36.951Z,4.65
2023-01-11T15:44:06.660Z,5.41
2023-01-11T15:46:55.294Z,5.32
2023-01-11T15:50:01.425Z,5.42
2023-01-11T15:52:50.645Z,5.45
2023-01-11T15:55:48.401Z,5.42
2023-01-11T15:58:23.899Z,5.33
2023-01-11T16:01:08.049Z,5.30
2023-01-11T16:04:02.748Z,5.35
2023-01-11T16:06:36.162Z,4.91
2023-01-11T16:09:25.375Z,4.95
2023-01-11T16:12:02.672Z,4.65
2023-01-11T16:14:57.291Z,4.44
2023-01-11T16:17:25.771Z,4.59
2023-01-11T16:19:56.619Z,4.79
2023-01-11T16:22:26.799Z,4.59
2023-01-11T16:24:58.238Z,4.66
2023-01-11T16:27:28.262Z,4.70
2023-01-11T16:29:57.165Z,4.43
2023-01-11T16:32:35.316Z,4.73
2023-01-11T16:35:16.161Z,4.92
2023-01-11T16:37:46.899Z,4.66
2023-01-11T16:40:18.407Z,5.11
2023-01-11T16:42:52.350Z,4.97
2023-01-11T16:45:21.909Z,4.93
2023-01-11T16:48:02.579Z,4.72
2023-01-11T16:50:29.999Z,4.53
2023-01-11T16:52:59.919Z,4.51
2023-01-11T16:55:40.402Z,4.37
2023-01-11T16:58:22.043Z,4.37
2023-01-11T17:01:05.222Z,4.40
2023-01-11T17:03:38.675Z,4.38
2023-01-11T17:06:08.751Z,4.26
2023-01-11T17:08:38.102Z,4.39
2023-01-11T17:11:32.018Z,4.29
2023-01-11T17:14:27.223Z,4.54
2023-01-11T17:17:00.251Z,4.65
2023-01-11T17:19:31.272Z,4.83
2023-01-11T17:22:15.599Z,4.54
2023-01-11T17:24:52.259Z,4.52
2023-01-11T17:27:25.656Z,4.41
2023-01-11T17:29:55.018Z,4.27
2023-01-11T17:32:47.729Z,4.35
2023-01-11T17:35:24.893Z,4.37
2023-01-11T17:37:56.045Z,4.05
2023-01-11T17:40:36.324Z,4.31
2023-01-11T17:43:23.869Z,4.13
2023-01-11T17:46:02.229Z,4.18
2023-01-11T17:48:30.161Z,4.52
2023-01-11T17:51:04.717Z,4.23
2023-01-11T17:53:36.734Z,4.05
2023-01-11T17:56:27.623Z,4.59
2023-01-11T17:59:16.284Z,4.60
2023-01-11T18:01:48.320Z,4.63
2023-01-11T18:04:21.683Z,4.63
2023-01-11T18:06:53.103Z,4.76
2023-01-11T18:09:30.653Z,4.96
2023-01-11T18:12:36.624Z,4.73
2023-01-11T18:15:06.663Z,4.61
2023-01-11T18:17:45.012Z,4.59
2023-01-11T18:20:15.785Z,4.57
2023-01-11T18:22:59.394Z,4.30
2023-01-11T18:25:32.415Z,4.12
2023-01-11T18:28:25.981Z,4.23
2023-01-11T18:30:57.948Z,4.13
2023-01-11T18:33:27.583Z,4.28
2023-01-11T18:36:00.057Z,4.18
2023-01-11T18:38:34.934Z,4.10
2023-01-11T18:41:26.716Z,3.93
2023-01-11T18:43:54.768Z,4.11
2023-01-11T18:46:23.445Z,4.17
2023-01-11T18:48:53.463Z,4.17
2023-01-11T18:51:34.113Z,4.10
2023-01-11T18:54:01.098Z,4.06
2023-01-11T18:56:28.664Z,4.03
2023-01-11T18:58:55.864Z,3.90
2023-01-11T19:01:23.069Z,3.94
2023-01-11T19:03:51.411Z,3.88
2023-01-11T19:06:21.633Z,4.02
2023-01-11T19:08:48.828Z,3.69
2023-01-11T19:11:16.942Z,3.68
2023-01-11T19:13:47.234Z,3.69
2023-01-11T19:16:15.158Z,3.99
2023-01-11T19:18:46.757Z,3.81
2023-01-11T19:21:14.780Z,3.77
2023-01-11T19:23:42.078Z,4.03
2023-01-11T19:26:09.086Z,4.02
2023-01-11T19:28:37.254Z,4.23
2023-01-11T19:31:09.345Z,4.25
2023-01-11T19:33:36.564Z,4.31
2023-01-11T19:36:07.895Z,4.43
2023-01-11T19:38:35.619Z,4.39
2023-01-11T19:41:10.534Z,4.36
2023-01-11T19:43:44.658Z,3.81
2023-01-11T19:46:25.857Z,3.99
2023-01-11T19:48:58.311Z,3.98
2023-01-11T19:51:25.573Z,3.63
2023-01-11T19:53:52.533Z,4.05
2023-01-11T19:56:19.461Z,4.05
2023-01-11T19:58:46.983Z,4.18
2023-01-11T20:01:14.503Z,3.87
2023-01-11T20:03:42.276Z,3.76
2023-01-11T20:06:09.725Z,3.76
2023-01-11T20:08:40.092Z,3.80
2023-01-11T20:11:18.100Z,3.78
2023-01-11T20:13:50.524Z,3.54
2023-01-11T20:16:24.102Z,3.70
2023-01-11T20:18:52.777Z,3.60
2023-01-11T20:21:21.375Z,3.60
2023-01-11T20:23:48.874Z,3.63
2023-01-11T20:26:17.785Z,3.64
2023-01-11T20:28:51.231Z,3.47
2023-01-11T20:31:18.632Z,3.64
2023-01-11T20:33:45.946Z,3.69
2023-01-11T20:36:17.987Z,3.73
2023-01-11T20:38:46.604Z,3.42
2023-01-11T20:41:37.967Z,3.51
2023-01-11T20:44:07.206Z,3.54
2023-01-11T20:46:35.758Z,3.52
2023-01-11T20:49:04.077Z,3.60
2023-01-11T20:51:31.314Z,3.62
2023-01-11T20:53:58.286Z,3.56
2023-01-11T20:56:25.290Z,3.68
2023-01-11T20:58:52.905Z,3.75
2023-01-11T21:01:26.464Z,3.47
2023-01-11T21:04:06.024Z,3.30
2023-01-11T21:06:34.875Z,3.74
2023-01-11T21:09:02.894Z,3.70
2023-01-11T21:11:31.442Z,3.77
2023-01-11T21:13:59.665Z,3.64
2023-01-11T21:16:28.615Z,3.77
2023-01-11T21:18:58.172Z,3.78
2023-01-11T21:21:31.431Z,3.76
2023-01-11T21:24:00.838Z,3.99
2023-01-11T21:26:28.571Z,3.84
2023-01-11T21:28:59.616Z,3.89
2023-01-11T21:31:29.292Z,3.68
2023-01-11T21:33:56.655Z,3.55
2023-01-11T21:36:28.192Z,3.44
2023-01-11T21:38:56.907Z,3.37
2023-01-11T21:41:48.027Z,3.87
2023-01-11T21:44:16.361Z,4.05
2023-01-11T21:46:43.833Z,3.77
2023-01-11T21:49:12.395Z,3.90
2023-01-11T21:51:40.518Z,3.80
2023-01-11T21:54:10.823Z,3.75
2023-01-11T21:56:41.089Z,3.54
2023-01-11T21:59:08.238Z,3.71
2023-01-11T22:01:35.565Z,3.66
2023-01-11T22:04:07.474Z,3.75
2023-01-11T22:06:40.087Z,3.58
2023-01-11T22:09:10.482Z,3.60
2023-01-11T22:11:39.804Z,3.31
2023-01-11T22:14:08.854Z,3.51
2023-01-11T22:16:46.501Z,3.67
2023-01-11T22:19:15.070Z,3.67
2023-01-11T22:21:42.951Z,3.76
2023-01-11T22:24:18.867Z,3.21
2023-01-11T22:26:46.171Z,3.55
2023-01-11T22:29:16.100Z,3.83
2023-01-11T22:31:52.830Z,3.87
2023-01-11T22:34:19.873Z,3.73
2023-01-11T22:36:47.112Z,3.02
2023-01-11T22:39:15.983Z,3.68
2023-01-11T22:41:45.624Z,3.54
2023-01-11T22:44:13.365Z,3.34
2023-01-11T22:46:40.837Z,3.65
2023-01-11T22:49:08.458Z,3.62
2023-01-11T22:51:35.964Z,3.61
2023-01-11T22:54:03.597Z,3.35
2023-01-11T22:56:31.355Z,3.21
2023-01-11T22:58:58.814Z,3.17
2023-01-11T23:01:30.110Z,3.32
2023-01-11T23:03:58.094Z,3.08
2023-01-11T23:06:27.897Z,3.40
2023-01-11T23:08:55.489Z,3.15
2023-01-11T23:11:44.486Z,3.58
2023-01-11T23:14:14.089Z,3.22
2023-01-11T23:16:41.979Z,2.90
2023-01-11T23:19:10.196Z,2.77
2023-01-11T23:21:42.741Z,2.71
2023-01-11T23:24:10.983Z,3.01
2023-01-11T23:26:38.118Z,3.12
2023-01-11T23:29:06.037Z,3.21
2023-01-11T23:31:33.387Z,3.06
2023-01-11T23:37:44.439Z,2.96
2023-01-11T23:40:11.880Z,2.94
2023-01-11T23:42:39.989Z,2.74
2023-01-11T23:45:07.661Z,2.65
2023-01-11T23:47:34.685Z,2.77
2023-01-11T23:50:01.703Z,2.53
2023-01-11T23:52:32.248Z,2.80
2023-01-11T23:54:59.400Z,2.83
2023-01-11T23:57:26.996Z,3.06
2023-01-11T23:59:54.279Z,2.91
